createdAt,value
2023-02-19T00:01:45.965Z,10.85
2023-02-19T00:04:14.236Z,10.91
2023-02-19T00:06:41.856Z,10.91
2023-02-19T00:09:14.705Z,10.91
2023-02-19T00:11:41.879Z,10.92
2023-02-19T00:14:09.247Z,10.92
2023-02-19T00:16:40.232Z,10.91
2023-02-19T00:19:11.797Z,10.89
2023-02-19T00:21:38.399Z,10.86
2023-02-19T00:24:06.925Z,10.88
2023-02-19T00:26:34.633Z,10.69
2023-02-19T00:29:02.061Z,10.86
2023-02-19T00:31:34.292Z,10.79
2023-02-19T00:34:05.833Z,10.84
2023-02-19T00:36:37.651Z,10.83
2023-02-19T00:39:06.830Z,10.81
2023-02-19T00:41:33.974Z,10.77
2023-02-19T00:44:03.858Z,10.79
2023-02-19T00:46:36.767Z,10.78
2023-02-19T00:49:04.855Z,10.77
2023-02-19T00:51:34.863Z,10.77
2023-02-19T00:54:01.678Z,10.75
2023-02-19T00:56:28.795Z,10.60
2023-02-19T00:58:55.959Z,10.63
2023-02-19T01:01:31.964Z,10.71
2023-02-19T01:03:58.509Z,10.34
2023-02-19T01:06:25.150Z,10.68
2023-02-19T01:08:54.072Z,10.65
2023-02-19T01:11:20.681Z,10.35
2023-02-19T01:13:47.786Z,10.66
2023-02-19T01:16:18.030Z,10.66
2023-02-19T01:18:45.688Z,10.51
2023-02-19T01:21:17.592Z,10.63
2023-02-19T01:23:45.417Z,10.64
2023-02-19T01:26:19.219Z,10.51
2023-02-19T01:28:46.566Z,10.61
2023-02-19T01:31:15.903Z,10.61
2023-02-19T01:33:47.953Z,10.62
2023-02-19T01:36:15.351Z,10.53
2023-02-19T01:38:42.256Z,10.61
2023-02-19T01:41:14.192Z,10.53
2023-02-19T01:44:04.562Z,10.61
2023-02-19T01:46:38.779Z,10.46
2023-02-19T01:49:17.662Z,10.62
2023-02-19T01:52:02.723Z,10.61
2023-02-19T01:54:36.234Z,10.43
2023-02-19T01:57:08.187Z,10.60
2023-02-19T01:59:37.248Z,10.55
2023-02-19T02:02:04.039Z,10.44
2023-02-19T02:04:32.814Z,10.56
2023-02-19T02:07:02.606Z,10.56
2023-02-19T02:09:50.202Z,10.54
2023-02-19T02:12:16.754Z,10.54
2023-02-19T02:14:46.490Z,10.49
2023-02-19T02:17:20.945Z,10.46
2023-02-19T02:20:01.654Z,10.41
2023-02-19T02:22:57.264Z,10.51
2023-02-19T02:26:02.198Z,10.50
2023-02-19T02:28:58.276Z,10.39
2023-02-19T02:31:35.792Z,10.43
2023-02-19T02:34:12.587Z,10.46
2023-02-19T02:36:45.690Z,10.45
2023-02-19T02:39:16.985Z,10.45
2023-02-19T02:41:46.172Z,10.41
2023-02-19T02:44:13.270Z,10.38
2023-02-19T02:46:44.263Z,10.27
2023-02-19T02:49:20.378Z,10.38
2023-02-19T02:51:55.084Z,10.31
2023-02-19T02:54:44.852Z,10.32
2023-02-19T02:57:16.088Z,10.39
2023-02-19T02:59:48.128Z,10.41
2023-02-19T03:02:22.736Z,10.38
2023-02-19T03:05:26.378Z,10.37
2023-02-19T03:08:17.774Z,10.31
2023-02-19T03:11:20.310Z,10.28
2023-02-19T03:14:05.959Z,10.17
2023-02-19T03:16:57.210Z,10.20
2023-02-19T03:19:28.291Z,10.29
2023-02-19T03:22:10.859Z,9.88
2023-02-19T03:25:08.979Z,10.20
2023-02-19T03:27:39.056Z,9.94
2023-02-19T03:30:12.550Z,10.30
2023-02-19T03:33:20.650Z,10.33
2023-02-19T03:35:56.676Z,10.33
2023-02-19T03:38:38.521Z,10.34
2023-02-19T03:41:05.199Z,10.37
2023-02-19T03:43:40.599Z,10.39
2023-02-19T03:46:23.308Z,10.41
2023-02-19T03:48:59.380Z,10.42
2023-02-19T03:51:28.827Z,10.43
2023-02-19T03:54:27.778Z,10.44
2023-02-19T03:57:05.634Z,10.44
2023-02-19T03:59:38.305Z,10.44
2023-02-19T04:02:16.026Z,10.44
2023-02-19T04:04:54.452Z,10.34
2023-02-19T04:07:22.597Z,10.43
2023-02-19T04:09:51.592Z,9.73
2023-02-19T04:12:20.665Z,10.37
2023-02-19T04:14:53.165Z,10.35
2023-02-19T04:17:44.042Z,10.33
2023-02-19T04:20:16.662Z,10.35
2023-02-19T04:22:44.027Z,10.32
2023-02-19T04:25:10.924Z,10.31
2023-02-19T04:27:38.830Z,10.21
2023-02-19T04:30:11.514Z,10.25
2023-02-19T04:32:40.337Z,10.19
2023-02-19T04:35:06.925Z,10.23
2023-02-19T04:37:33.563Z,10.20
2023-02-19T04:40:00.207Z,10.29
2023-02-19T04:42:26.741Z,10.30
2023-02-19T04:44:56.329Z,10.31
2023-02-19T04:47:25.351Z,10.29
2023-02-19T04:49:52.084Z,10.30
2023-02-19T04:52:20.878Z,10.31
2023-02-19T04:54:49.852Z,10.32
2023-02-19T04:57:18.817Z,10.32
2023-02-19T04:59:46.605Z,10.31
2023-02-19T05:02:13.255Z,10.20
2023-02-19T05:04:39.858Z,10.29
2023-02-19T05:07:06.470Z,10.17
2023-02-19T05:09:33.071Z,10.30
2023-02-19T05:11:59.651Z,10.27
2023-02-19T05:14:26.212Z,10.28
2023-02-19T05:16:52.855Z,10.25
2023-02-19T05:19:19.457Z,9.84
2023-02-19T05:21:46.140Z,9.88
2023-02-19T05:24:14.944Z,10.22
2023-02-19T05:26:41.901Z,10.13
2023-02-19T05:29:11.864Z,10.22
2023-02-19T05:31:41.054Z,10.21
2023-02-19T05:34:09.896Z,10.19
2023-02-19T05:36:37.244Z,10.04
2023-02-19T05:39:03.911Z,10.19
2023-02-19T05:41:33.160Z,10.19
2023-02-19T05:44:02.946Z,10.15
2023-02-19T05:46:30.025Z,10.12
2023-02-19T05:48:58.960Z,10.14
2023-02-19T05:51:26.711Z,10.13
2023-02-19T05:53:53.920Z,10.09
2023-02-19T05:56:26.552Z,10.08
2023-02-19T05:58:54.399Z,10.06
2023-02-19T06:01:23.526Z,10.04
2023-02-19T06:03:50.159Z,9.93
2023-02-19T06:06:18.837Z,9.95
2023-02-19T06:08:46.098Z,10.03
2023-02-19T06:11:14.998Z,9.91
2023-02-19T06:13:41.514Z,9.97
2023-02-19T06:16:11.033Z,9.96
2023-02-19T06:18:37.782Z,9.89
2023-02-19T06:21:09.187Z,9.97
2023-02-19T06:23:36.480Z,9.97
2023-02-19T06:26:13.581Z,9.97
2023-02-19T06:28:41.924Z,9.91
2023-02-19T06:31:10.278Z,9.98
2023-02-19T06:33:40.632Z,9.93
2023-02-19T06:36:11.788Z,9.99
2023-02-19T06:38:41.511Z,9.98
2023-02-19T06:41:09.599Z,9.97
2023-02-19T06:43:36.805Z,9.99
2023-02-19T06:46:06.305Z,9.96
2023-02-19T06:48:34.162Z,9.96
2023-02-19T06:51:03.397Z,9.90
2023-02-19T06:53:32.374Z,9.95
2023-02-19T06:56:00.670Z,9.94
2023-02-19T06:58:30.547Z,9.93
2023-02-19T07:00:59.700Z,9.92
2023-02-19T07:03:26.727Z,9.76
2023-02-19T07:05:53.639Z,9.65
2023-02-19T07:08:23.547Z,9.86
2023-02-19T07:10:58.000Z,9.83
2023-02-19T07:13:28.853Z,9.86
2023-02-19T07:16:04.296Z,9.85
2023-02-19T07:18:31.637Z,9.85
2023-02-19T07:21:15.235Z,9.83
2023-02-19T07:23:43.252Z,9.86
2023-02-19T07:26:15.016Z,9.83
2023-02-19T07:28:43.084Z,9.55
2023-02-19T07:31:10.623Z,9.87
2023-02-19T07:33:37.749Z,9.80
2023-02-19T07:36:07.222Z,9.81
2023-02-19T07:38:33.983Z,9.87
2023-02-19T07:41:02.722Z,9.85
2023-02-19T07:43:34.501Z,9.82
2023-02-19T07:46:06.491Z,9.82
2023-02-19T07:48:35.454Z,9.82
2023-02-19T07:51:03.646Z,9.63
2023-02-19T07:53:30.768Z,9.82
2023-02-19T07:56:02.103Z,9.74
2023-02-19T07:58:29.427Z,9.71
2023-02-19T08:00:56.474Z,8.98
2023-02-19T08:03:25.432Z,9.78
2023-02-19T08:05:53.870Z,9.87
2023-02-19T08:08:20.660Z,9.91
2023-02-19T08:11:05.895Z,9.91
2023-02-19T08:13:33.287Z,9.96
2023-02-19T08:16:15.637Z,9.98
2023-02-19T08:18:46.149Z,9.96
2023-02-19T08:21:13.818Z,10.11
2023-02-19T08:23:40.813Z,10.07
2023-02-19T08:26:08.673Z,10.01
2023-02-19T08:28:35.323Z,10.11
2023-02-19T08:31:06.767Z,10.09
2023-02-19T08:33:33.662Z,10.07
2023-02-19T08:36:05.677Z,10.07
2023-02-19T08:38:38.620Z,10.05
2023-02-19T08:41:13.399Z,10.04
2023-02-19T08:43:41.450Z,10.07
2023-02-19T08:46:10.358Z,10.11
2023-02-19T08:48:37.682Z,10.12
2023-02-19T08:51:08.605Z,10.10
2023-02-19T08:53:37.671Z,10.17
2023-02-19T08:56:06.453Z,10.15
2023-02-19T08:58:33.295Z,10.12
2023-02-19T09:01:02.428Z,10.18
2023-02-19T09:03:29.188Z,10.20
2023-02-19T09:05:55.838Z,10.23
2023-02-19T09:08:24.729Z,10.29
2023-02-19T09:11:01.749Z,9.99
2023-02-19T09:13:30.531Z,10.25
2023-02-19T09:15:57.323Z,10.31
2023-02-19T09:18:26.996Z,10.31
2023-02-19T09:20:53.660Z,10.22
2023-02-19T09:23:22.660Z,10.39
2023-02-19T09:25:49.257Z,10.45
2023-02-19T09:28:16.912Z,10.54
2023-02-19T09:30:43.566Z,10.54
2023-02-19T09:33:10.214Z,10.58
2023-02-19T09:35:41.282Z,10.41
2023-02-19T09:38:10.850Z,10.77
2023-02-19T09:40:38.919Z,10.13
2023-02-19T09:43:11.990Z,10.84
2023-02-19T09:45:40.109Z,11.29
2023-02-19T09:48:07.478Z,11.35
2023-02-19T09:50:39.213Z,11.21
2023-02-19T09:53:23.149Z,11.26
2023-02-19T09:55:50.317Z,11.10
2023-02-19T09:58:30.058Z,11.44
2023-02-19T10:01:00.167Z,11.31
2023-02-19T10:03:36.106Z,11.27
2023-02-19T10:06:10.879Z,11.13
2023-02-19T10:08:42.143Z,11.26
2023-02-19T10:11:12.782Z,11.34
2023-02-19T10:13:45.716Z,11.48
2023-02-19T10:16:19.261Z,11.48
2023-02-19T10:18:47.053Z,11.40
2023-02-19T10:21:26.287Z,11.42
2023-02-19T10:24:01.341Z,11.33
2023-02-19T10:26:28.019Z,11.31
2023-02-19T10:28:55.611Z,11.51
2023-02-19T10:31:25.712Z,11.56
2023-02-19T10:34:02.075Z,11.55
2023-02-19T10:36:40.951Z,11.55
2023-02-19T10:39:22.749Z,11.70
2023-02-19T10:41:56.418Z,11.63
2023-02-19T10:44:29.157Z,11.75
2023-02-19T10:46:59.389Z,11.77
2023-02-19T10:49:38.910Z,11.80
2023-02-19T10:52:35.290Z,11.88
2023-02-19T10:55:38.522Z,11.86
2023-02-19T10:58:40.224Z,12.04
2023-02-19T11:01:13.965Z,12.17
2023-02-19T11:03:41.642Z,11.80
2023-02-19T11:06:11.278Z,12.00
2023-02-19T11:08:48.836Z,12.15
2023-02-19T11:11:38.823Z,12.31
2023-02-19T11:14:27.288Z,12.29
2023-02-19T11:16:56.911Z,12.11
2023-02-19T11:19:41.170Z,11.76
2023-02-19T11:22:35.517Z,11.68
2023-02-19T11:25:19.014Z,11.48
2023-02-19T11:28:08.528Z,11.43
2023-02-19T11:30:45.287Z,11.41
2023-02-19T11:33:20.396Z,11.55
2023-02-19T11:35:48.894Z,11.63
2023-02-19T11:38:18.210Z,11.66
2023-02-19T11:40:50.566Z,11.51
2023-02-19T11:43:36.062Z,11.76
2023-02-19T11:46:09.589Z,11.64
2023-02-19T11:48:41.438Z,11.60
2023-02-19T11:51:23.867Z,11.30
2023-02-19T11:53:59.292Z,11.37
2023-02-19T11:56:34.505Z,11.46
2023-02-19T12:03:10.007Z,11.50
2023-02-19T12:05:42.530Z,11.56
2023-02-19T12:08:27.322Z,11.45
2023-02-19T12:11:00.083Z,11.40
2023-02-19T12:13:54.074Z,11.34
2023-02-19T12:16:31.513Z,11.37
2023-02-19T12:19:15.466Z,11.49
2023-02-19T12:21:55.542Z,11.71
2023-02-19T12:24:56.096Z,11.89
2023-02-19T12:27:28.615Z,11.97
2023-02-19T12:30:23.862Z,11.87
2023-02-19T12:33:18.560Z,11.60
2023-02-19T12:36:05.531Z,11.60
2023-02-19T12:38:44.566Z,11.68
2023-02-19T12:41:22.606Z,11.74
2023-02-19T12:44:12.111Z,11.71
2023-02-19T12:46:44.353Z,11.62
2023-02-19T12:49:22.754Z,11.53
2023-02-19T12:51:55.362Z,11.40
2023-02-19T12:54:40.165Z,11.30
2023-02-19T12:57:21.960Z,11.23
2023-02-19T13:00:04.861Z,11.24
2023-02-19T13:02:40.738Z,11.21
2023-02-19T13:05:22.731Z,11.20
2023-02-19T13:07:49.261Z,11.18
2023-02-19T13:10:30.918Z,10.70
2023-02-19T13:13:04.592Z,11.07
2023-02-19T13:15:41.841Z,11.11
2023-02-19T13:18:20.861Z,11.05
2023-02-19T13:20:48.916Z,10.57
2023-02-19T13:23:43.149Z,10.92
2023-02-19T13:26:29.494Z,10.90
2023-02-19T13:29:09.450Z,10.89
2023-02-19T13:31:36.177Z,10.86
2023-02-19T13:34:20.470Z,10.74
2023-02-19T13:36:56.821Z,10.59
2023-02-19T13:39:27.565Z,10.73
2023-02-19T13:41:59.785Z,10.56
2023-02-19T13:44:36.670Z,10.57
2023-02-19T13:47:06.235Z,10.62
2023-02-19T13:49:34.012Z,10.43
2023-02-19T13:52:02.926Z,10.24
2023-02-19T13:54:40.181Z,10.25
2023-02-19T13:57:22.478Z,10.33
2023-02-19T13:59:54.029Z,10.30
2023-02-19T14:02:20.546Z,10.28
2023-02-19T14:05:33.272Z,10.27
2023-02-19T14:08:02.453Z,10.27
2023-02-19T14:10:54.439Z,10.30
2023-02-19T14:13:52.122Z,10.33
2023-02-19T14:16:35.089Z,10.32
2023-02-19T14:19:01.755Z,10.43
2023-02-19T14:21:38.911Z,10.56
2023-02-19T14:24:10.735Z,10.58
2023-02-19T14:26:40.282Z,10.53
2023-02-19T14:29:15.521Z,10.61
2023-02-19T14:31:47.591Z,10.56
2023-02-19T14:34:19.621Z,10.52
2023-02-19T14:36:55.424Z,10.38
2023-02-19T14:39:30.157Z,10.47
2023-02-19T14:42:33.563Z,10.39
2023-02-19T14:45:06.448Z,10.43
2023-02-19T14:47:35.115Z,10.40
2023-02-19T14:50:07.367Z,10.46
2023-02-19T14:52:36.902Z,10.49
2023-02-19T14:55:18.141Z,10.40
2023-02-19T14:57:47.442Z,10.51
2023-02-19T15:00:20.415Z,10.52
2023-02-19T15:02:46.986Z,10.43
2023-02-19T15:05:18.534Z,10.45
2023-02-19T15:07:48.631Z,10.41
2023-02-19T15:10:19.043Z,9.87
2023-02-19T15:12:56.284Z,10.29
2023-02-19T15:15:29.792Z,10.09
2023-02-19T15:17:58.097Z,10.18
2023-02-19T15:20:28.455Z,10.14
2023-02-19T15:22:57.078Z,10.12
2023-02-19T15:25:29.419Z,9.67
2023-02-19T15:27:55.958Z,10.12
2023-02-19T15:30:33.314Z,10.12
2023-02-19T15:33:02.986Z,10.04
2023-02-19T15:35:32.602Z,9.99
2023-02-19T15:38:03.844Z,9.94
2023-02-19T15:40:31.415Z,9.95
2023-02-19T15:43:01.461Z,9.81
2023-02-19T15:45:31.622Z,9.96
2023-02-19T15:48:08.162Z,9.96
2023-02-19T15:50:41.342Z,9.91
2023-02-19T15:53:34.130Z,9.82
2023-02-19T15:56:27.984Z,9.84
2023-02-19T15:59:15.345Z,9.72
2023-02-19T16:01:42.160Z,9.81
2023-02-19T16:04:14.865Z,9.80
2023-02-19T16:06:59.902Z,9.73
2023-02-19T16:09:34.947Z,9.70
2023-02-19T16:12:03.845Z,9.59
2023-02-19T16:14:35.463Z,9.66
2023-02-19T16:17:27.878Z,9.60
2023-02-19T16:20:02.733Z,9.62
2023-02-19T16:22:43.271Z,9.62
2023-02-19T16:25:26.303Z,9.58
2023-02-19T16:27:53.314Z,9.56
2023-02-19T16:30:36.216Z,9.39
2023-02-19T16:33:24.267Z,9.43
2023-02-19T16:35:53.217Z,9.39
2023-02-19T16:38:23.136Z,9.39
2023-02-19T16:40:50.730Z,9.37
2023-02-19T16:43:25.046Z,9.35
2023-02-19T16:45:51.706Z,9.30
2023-02-19T16:48:26.100Z,9.32
2023-02-19T16:50:53.035Z,9.17
2023-02-19T16:53:27.016Z,8.72
2023-02-19T16:55:53.587Z,9.12
2023-02-19T16:58:20.474Z,9.20
2023-02-19T17:00:47.145Z,9.18
2023-02-19T17:03:19.527Z,9.15
2023-02-19T17:05:47.043Z,9.14
2023-02-19T17:08:28.782Z,9.12
2023-02-19T17:10:56.290Z,8.97
2023-02-19T17:13:25.253Z,9.08
2023-02-19T17:15:51.828Z,8.99
2023-02-19T17:18:18.623Z,8.92
2023-02-19T17:20:53.711Z,8.99
2023-02-19T17:23:20.315Z,8.95
2023-02-19T17:25:46.884Z,8.90
2023-02-19T17:28:15.607Z,8.98
2023-02-19T17:30:42.393Z,8.95
2023-02-19T17:33:08.964Z,8.86
2023-02-19T17:35:38.671Z,8.57
2023-02-19T17:38:09.627Z,8.64
2023-02-19T17:40:37.246Z,8.89
2023-02-19T17:43:04.744Z,8.51
2023-02-19T17:45:31.747Z,8.82
2023-02-19T17:47:58.449Z,8.60
2023-02-19T17:50:28.739Z,8.75
2023-02-19T17:52:58.750Z,8.80
2023-02-19T17:55:27.784Z,8.82
2023-02-19T17:57:57.049Z,8.84
2023-02-19T18:00:29.382Z,8.84
2023-02-19T18:02:58.353Z,8.83
2023-02-19T18:05:27.372Z,8.68
2023-02-19T18:07:54.101Z,8.80
2023-02-19T18:10:23.443Z,8.78
2023-02-19T18:12:50.191Z,8.76
2023-02-19T18:15:21.281Z,8.77
2023-02-19T18:17:47.838Z,8.69
2023-02-19T18:20:16.724Z,8.66
2023-02-19T18:22:43.426Z,8.55
2023-02-19T18:25:12.549Z,8.66
2023-02-19T18:27:39.387Z,8.62
2023-02-19T18:30:06.892Z,8.57
2023-02-19T18:32:33.502Z,8.53
2023-02-19T18:35:03.180Z,8.37
2023-02-19T18:37:31.671Z,8.10
2023-02-19T18:39:59.409Z,8.27
2023-02-19T18:42:29.017Z,8.22
2023-02-19T18:44:56.457Z,8.15
2023-02-19T18:47:25.460Z,8.10
2023-02-19T18:49:54.529Z,8.05
2023-02-19T18:52:23.849Z,7.84
2023-02-19T18:54:52.025Z,7.96
2023-02-19T18:57:20.233Z,7.93
2023-02-19T18:59:49.758Z,7.79
2023-02-19T19:02:18.815Z,7.82
2023-02-19T19:04:51.120Z,7.76
2023-02-19T19:07:19.410Z,7.62
2023-02-19T19:09:46.167Z,7.63
2023-02-19T19:12:13.304Z,7.59
2023-02-19T19:14:39.974Z,7.54
2023-02-19T19:17:06.684Z,7.47
2023-02-19T19:19:35.418Z,7.27
2023-02-19T19:22:01.978Z,7.39
2023-02-19T19:24:28.595Z,7.32
2023-02-19T19:26:55.226Z,7.33
2023-02-19T19:29:24.645Z,7.19
2023-02-19T19:31:51.383Z,7.24
2023-02-19T19:34:20.813Z,7.21
2023-02-19T19:36:47.420Z,7.19
2023-02-19T19:39:14.320Z,6.72
2023-02-19T19:41:40.962Z,6.98
2023-02-19T19:44:10.951Z,7.12
2023-02-19T19:46:44.557Z,7.11
2023-02-19T19:49:11.992Z,7.03
2023-02-19T19:51:38.656Z,7.01
2023-02-19T19:54:08.478Z,6.82
2023-02-19T19:56:43.846Z,6.92
2023-02-19T19:59:12.482Z,6.80
2023-02-19T20:01:39.556Z,6.78
2023-02-19T20:04:08.748Z,6.86
2023-02-19T20:06:35.370Z,6.68
2023-02-19T20:09:04.311Z,6.82
2023-02-19T20:11:30.892Z,6.83
2023-02-19T20:13:57.448Z,6.78
2023-02-19T20:16:28.084Z,6.80
2023-02-19T20:18:54.873Z,6.69
2023-02-19T20:21:21.501Z,6.69
2023-02-19T20:23:48.072Z,6.73
2023-02-19T20:26:21.877Z,6.56
2023-02-19T20:28:48.483Z,6.70
2023-02-19T20:31:15.500Z,6.62
2023-02-19T20:33:42.364Z,6.65
2023-02-19T20:36:09.205Z,6.47
2023-02-19T20:38:35.837Z,6.52
2023-02-19T20:41:06.143Z,6.57
2023-02-19T20:43:32.703Z,6.55
2023-02-19T20:46:02.127Z,6.40
2023-02-19T20:48:28.897Z,6.47
2023-02-19T20:50:59.494Z,6.28
2023-02-19T20:53:29.971Z,6.45
2023-02-19T20:55:56.759Z,6.38
2023-02-19T20:58:24.328Z,6.42
2023-02-19T21:00:53.514Z,6.37
2023-02-19T21:03:25.459Z,6.38
2023-02-19T21:05:52.028Z,6.21
2023-02-19T21:08:21.136Z,6.40
2023-02-19T21:10:47.685Z,6.37
2023-02-19T21:13:14.288Z,6.21
2023-02-19T21:15:41.198Z,5.23
2023-02-19T21:18:10.330Z,6.23
2023-02-19T21:20:41.869Z,6.29
2023-02-19T21:23:08.428Z,6.12
2023-02-19T21:25:35.074Z,5.77
2023-02-19T21:28:05.347Z,6.11
2023-02-19T21:30:31.956Z,6.13
2023-02-19T21:32:58.548Z,6.02
2023-02-19T21:35:28.004Z,6.16
2023-02-19T21:37:54.582Z,6.06
2023-02-19T21:40:23.575Z,6.03
2023-02-19T21:42:50.115Z,6.03
2023-02-19T21:45:16.813Z,6.01
2023-02-19T21:47:43.919Z,6.10
2023-02-19T21:50:10.896Z,6.09
2023-02-19T21:52:40.584Z,5.89
2023-02-19T21:55:09.429Z,6.02
2023-02-19T21:57:38.195Z,6.06
2023-02-19T22:00:08.534Z,5.96
2023-02-19T22:02:35.150Z,5.98
2023-02-19T22:05:04.723Z,5.98
2023-02-19T22:07:31.398Z,5.96
2023-02-19T22:10:00.253Z,5.94
2023-02-19T22:12:26.880Z,5.91
2023-02-19T22:14:53.452Z,5.34
2023-02-19T22:17:22.390Z,5.76
2023-02-19T22:19:48.987Z,5.79
2023-02-19T22:22:15.572Z,5.76
2023-02-19T22:24:42.225Z,5.68
2023-02-19T22:27:09.187Z,5.73
2023-02-19T22:29:35.884Z,5.77
2023-02-19T22:32:02.783Z,5.76
2023-02-19T22:34:29.491Z,5.77
2023-02-19T22:36:56.011Z,5.77
2023-02-19T22:39:25.952Z,5.61
2023-02-19T22:41:53.469Z,5.78
2023-02-19T22:44:20.147Z,5.76
2023-02-19T22:47:00.961Z,5.78
2023-02-19T22:49:27.518Z,5.76
2023-02-19T22:51:58.757Z,5.76
2023-02-19T22:54:27.068Z,5.74
2023-02-19T22:56:55.121Z,5.73
2023-02-19T22:59:21.890Z,5.37
2023-02-19T23:01:49.792Z,5.35
2023-02-19T23:04:19.727Z,5.71
2023-02-19T23:06:48.641Z,5.52
2023-02-19T23:09:20.278Z,5.68
2023-02-19T23:11:51.405Z,5.67
2023-02-19T23:14:20.445Z,5.32
2023-02-19T23:16:49.132Z,5.68
2023-02-19T23:19:21.068Z,5.70
2023-02-19T23:21:47.931Z,5.70
2023-02-19T23:24:15.220Z,5.68
2023-02-19T23:26:50.897Z,5.70
2023-02-19T23:29:20.190Z,5.70
2023-02-19T23:31:47.282Z,5.61
2023-02-19T23:34:17.771Z,5.75
2023-02-19T23:36:49.273Z,5.77
2023-02-19T23:39:19.248Z,5.82
2023-02-19T23:41:51.759Z,5.86
2023-02-19T23:44:19.194Z,5.90
2023-02-19T23:46:45.958Z,5.93
2023-02-19T23:49:15.564Z,5.96
2023-02-19T23:51:42.114Z,6.03
2023-02-19T23:54:10.973Z,5.99
2023-02-19T23:56:37.594Z,6.07
2023-02-19T23:59:07.116Z,6.14
